createdAt,value
2022-09-26T00:00:17.435Z,57.80
2022-09-26T00:05:39.749Z,59.88
2022-09-26T00:10:41.526Z,71.46
2022-09-26T00:15:43.216Z,68.76
2022-09-26T00:20:45.022Z,62.05
2022-09-26T00:25:51.466Z,53.72
2022-09-26T00:30:54.166Z,53.53
2022-09-26T00:35:56.134Z,55.69
2022-09-26T00:40:58.083Z,57.66
2022-09-26T00:46:16.024Z,59.36
2022-09-26T00:51:18.376Z,72.11
2022-09-26T00:56:35.496Z,66.15
2022-09-26T01:01:37.705Z,54.18
2022-09-26T01:06:41.190Z,53.98
2022-09-26T01:11:44.599Z,56.04
2022-09-26T01:16:50.722Z,57.97
2022-09-26T01:22:31.891Z,59.86
2022-09-26T01:28:01.119Z,72.45
2022-09-26T01:33:33.912Z,65.63
2022-09-26T01:38:52.724Z,53.95
2022-09-26T01:44:28.415Z,53.50
2022-09-26T01:49:54.265Z,55.81
2022-09-26T01:55:20.681Z,57.91
2022-09-26T02:00:23.024Z,70.17
2022-09-26T02:05:44.096Z,66.47
2022-09-26T02:10:59.049Z,55.14
2022-09-26T02:16:48.955Z,54.17
2022-09-26T02:21:52.092Z,55.92
2022-09-26T02:26:54.454Z,58.72
2022-09-26T02:32:12.469Z,69.38
2022-09-26T02:37:20.690Z,66.59
2022-09-26T02:42:53.005Z,60.14
2022-09-26T02:48:13.990Z,52.16
2022-09-26T02:54:00.447Z,53.36
2022-09-26T02:59:21.173Z,55.68
2022-09-26T03:04:49.476Z,57.95
2022-09-26T03:09:54.031Z,59.64
2022-09-26T03:14:58.913Z,72.02
2022-09-26T03:20:19.113Z,68.12
2022-09-26T03:25:25.386Z,61.07
2022-09-26T03:30:29.292Z,52.01
2022-09-26T03:35:31.056Z,51.77
2022-09-26T03:40:32.831Z,54.38
2022-09-26T03:45:37.775Z,56.44
2022-09-26T03:50:40.057Z,58.44
2022-09-26T03:55:41.723Z,70.09
2022-09-26T04:00:43.414Z,68.56
2022-09-26T04:05:46.403Z,61.30
2022-09-26T04:10:48.076Z,52.50
2022-09-26T04:15:56.308Z,52.18
2022-09-26T04:21:26.576Z,54.07
2022-09-26T04:26:28.317Z,56.50
2022-09-26T04:31:30.742Z,59.66
2022-09-26T04:36:33.510Z,72.39
2022-09-26T04:41:35.895Z,69.48
2022-09-26T04:46:38.022Z,61.80
2022-09-26T04:51:39.854Z,53.61
2022-09-26T04:56:41.628Z,52.71
2022-09-26T05:01:43.346Z,55.32
2022-09-26T05:06:45.112Z,57.82
2022-09-26T05:11:46.849Z,59.68
2022-09-26T05:16:48.653Z,72.83
2022-09-26T05:21:50.506Z,71.28
2022-09-26T05:26:52.800Z,64.57
2022-09-26T05:31:55.298Z,60.33
2022-09-26T05:36:57.261Z,53.27
2022-09-26T05:41:59.764Z,52.79
2022-09-26T05:47:02.127Z,55.43
2022-09-26T05:52:04.226Z,58.09
2022-09-26T05:57:05.998Z,69.78
2022-09-26T06:02:07.982Z,68.79
2022-09-26T06:07:10.266Z,62.94
2022-09-26T06:12:11.941Z,55.11
2022-09-26T06:17:13.654Z,54.12
2022-09-26T06:22:15.488Z,56.16
2022-09-26T06:27:17.164Z,67.07
2022-09-26T06:32:19.384Z,66.61
2022-09-26T06:37:21.225Z,60.55
2022-09-26T06:42:24.859Z,53.12
2022-09-26T06:47:29.483Z,53.52
2022-09-26T06:52:34.448Z,56.31
2022-09-26T06:57:42.329Z,58.95
2022-09-26T07:02:55.573Z,70.16
2022-09-26T07:07:58.084Z,68.65
2022-09-26T07:13:09.716Z,63.03
2022-09-26T07:18:11.826Z,54.27
2022-09-26T07:23:16.008Z,53.81
2022-09-26T07:28:17.786Z,55.64
2022-09-26T07:33:19.559Z,57.66
2022-09-26T07:38:21.330Z,60.06
2022-09-26T07:43:37.795Z,69.44
2022-09-26T07:49:04.244Z,64.25
2022-09-26T07:54:06.342Z,53.62
2022-09-26T07:59:08.063Z,51.46
2022-09-26T08:04:11.913Z,53.05
2022-09-26T08:09:14.667Z,55.01
2022-09-26T08:14:16.556Z,56.38
2022-09-26T08:19:18.344Z,56.94
2022-09-26T08:24:20.621Z,59.38
2022-09-26T08:29:23.215Z,61.07
2022-09-26T08:34:25.908Z,61.13
2022-09-26T08:39:32.542Z,60.18
2022-09-26T08:45:54.684Z,60.32
2022-09-26T08:51:39.334Z,61.42
2022-09-26T08:56:56.781Z,64.76
2022-09-26T09:02:10.109Z,64.32
2022-09-26T09:07:23.814Z,52.23
2022-09-26T09:12:47.470Z,50.82
2022-09-26T09:18:30.007Z,51.63
2022-09-26T09:24:12.560Z,52.60
2022-09-26T09:30:20.642Z,54.54
2022-09-26T09:35:51.331Z,55.27
2022-09-26T09:41:11.933Z,55.09
2022-09-26T09:46:27.254Z,56.03
2022-09-26T09:52:20.013Z,57.17
2022-09-26T09:57:48.625Z,57.88
2022-09-26T10:03:11.562Z,58.27
2022-09-26T10:08:18.803Z,58.51
2022-09-26T10:13:26.487Z,58.27
2022-09-26T10:18:28.774Z,57.96
2022-09-26T10:23:39.500Z,57.63
2022-09-26T10:28:55.154Z,57.59
2022-09-26T10:34:05.338Z,56.25
2022-09-26T10:39:34.940Z,56.47
2022-09-26T10:44:36.745Z,56.60
2022-09-26T10:49:45.981Z,56.80
2022-09-26T10:55:00.786Z,56.02
2022-09-26T11:00:07.116Z,57.09
2022-09-26T11:05:28.481Z,56.22
2022-09-26T11:10:33.660Z,55.94
2022-09-26T11:15:39.476Z,56.18
2022-09-26T11:20:52.047Z,54.97
2022-09-26T11:26:00.465Z,54.15
2022-09-26T11:31:14.925Z,54.32
2022-09-26T11:36:51.036Z,54.03
2022-09-26T11:42:15.555Z,53.95
2022-09-26T11:47:51.300Z,53.24
2022-09-26T11:53:09.859Z,53.50
2022-09-26T11:58:29.658Z,53.72
2022-09-26T12:04:18.402Z,53.12
2022-09-26T12:10:00.961Z,53.65
2022-09-26T12:15:32.700Z,53.07
2022-09-26T12:20:49.483Z,52.47
2022-09-26T12:26:39.374Z,53.10
2022-09-26T12:31:50.734Z,53.68
2022-09-26T12:37:09.341Z,52.80
2022-09-26T12:42:55.149Z,52.56
2022-09-26T12:48:26.826Z,51.77
2022-09-26T12:54:28.250Z,51.45
2022-09-26T13:00:16.182Z,50.64
2022-09-26T13:05:46.503Z,50.95
2022-09-26T13:11:13.156Z,50.71
2022-09-26T13:16:33.671Z,49.97
2022-09-26T13:21:50.187Z,49.12
2022-09-26T13:27:13.471Z,49.96
2022-09-26T13:32:26.859Z,49.90
2022-09-26T13:37:35.922Z,49.41
2022-09-26T13:42:53.180Z,49.53
2022-09-26T13:48:09.929Z,49.19
2022-09-26T13:53:23.888Z,48.96
2022-09-26T13:58:39.292Z,49.25
2022-09-26T14:03:42.738Z,49.09
2022-09-26T14:09:23.910Z,48.62
2022-09-26T14:14:43.512Z,50.00
2022-09-26T14:19:49.276Z,50.14
2022-09-26T14:24:53.068Z,50.44
2022-09-26T14:30:26.803Z,51.63
2022-09-26T14:35:33.812Z,52.09
2022-09-26T14:40:51.794Z,52.09
2022-09-26T14:46:14.915Z,51.81
2022-09-26T14:51:18.760Z,51.08
2022-09-26T14:56:26.876Z,50.27
2022-09-26T15:01:37.303Z,50.86
2022-09-26T15:06:45.887Z,50.69
2022-09-26T15:11:58.003Z,50.63
2022-09-26T15:17:01.933Z,51.10
2022-09-26T15:22:15.755Z,51.74
2022-09-26T15:27:29.238Z,51.87
2022-09-26T15:32:33.071Z,52.47
2022-09-26T15:37:36.305Z,53.48
2022-09-26T15:42:56.784Z,54.72
2022-09-26T15:48:25.187Z,56.18
2022-09-26T15:53:53.261Z,57.70
2022-09-26T15:59:18.611Z,59.47
2022-09-26T16:04:31.847Z,60.79
2022-09-26T16:09:39.574Z,71.83
2022-09-26T16:14:46.454Z,66.20
2022-09-26T16:20:04.205Z,55.30
2022-09-26T16:25:15.229Z,52.76
2022-09-26T16:30:29.491Z,54.31
2022-09-26T16:35:35.130Z,56.27
2022-09-26T16:40:36.957Z,57.89
2022-09-26T16:45:55.335Z,59.19
2022-09-26T16:51:20.810Z,60.26
2022-09-26T16:56:25.159Z,71.24
2022-09-26T17:01:45.914Z,65.67
2022-09-26T17:06:48.037Z,55.74
2022-09-26T17:11:52.887Z,54.36
2022-09-26T17:16:59.258Z,55.85
2022-09-26T17:22:01.058Z,57.39
2022-09-26T17:27:07.190Z,59.30
2022-09-26T17:32:20.536Z,69.35
2022-09-26T17:37:22.443Z,65.44
2022-09-26T17:42:25.041Z,55.82
2022-09-26T17:47:27.125Z,54.23
2022-09-26T17:52:32.585Z,55.53
2022-09-26T17:57:38.195Z,56.74
2022-09-26T18:02:54.639Z,57.89
2022-09-26T18:08:03.880Z,58.74
2022-09-26T18:13:14.596Z,60.04
2022-09-26T18:18:20.583Z,70.73
2022-09-26T18:23:29.462Z,67.53
2022-09-26T18:28:32.007Z,56.90
2022-09-26T18:33:37.915Z,54.32
2022-09-26T18:38:40.064Z,55.53
2022-09-26T18:43:42.554Z,57.48
2022-09-26T18:48:46.076Z,58.54
2022-09-26T18:53:47.951Z,59.35
2022-09-26T18:58:50.545Z,68.45
2022-09-26T19:03:52.728Z,66.53
2022-09-26T19:09:05.866Z,56.05
2022-09-26T19:14:17.824Z,53.60
2022-09-26T19:19:20.272Z,55.02
2022-09-26T19:24:24.917Z,57.56
2022-09-26T19:30:10.873Z,59.44
2022-09-26T19:35:38.738Z,71.52
2022-09-26T19:40:42.741Z,66.27
2022-09-26T19:45:52.852Z,60.97
2022-09-26T19:50:55.510Z,53.95
2022-09-26T19:55:57.588Z,53.47
2022-09-26T20:01:14.131Z,55.28
2022-09-26T20:06:25.131Z,57.52
2022-09-26T20:11:26.873Z,59.34
2022-09-26T20:16:33.832Z,69.50
2022-09-26T20:21:35.749Z,66.34
2022-09-26T20:26:37.765Z,56.79
2022-09-26T20:31:43.084Z,55.53
2022-09-26T20:36:49.577Z,57.26
2022-09-26T20:41:52.409Z,59.76
2022-09-26T20:46:59.216Z,70.57
2022-09-26T20:52:02.896Z,67.04
2022-09-26T20:57:04.660Z,61.18
2022-09-26T21:02:28.613Z,53.87
2022-09-26T21:07:32.157Z,53.46
2022-09-26T21:12:33.945Z,55.71
2022-09-26T21:17:35.719Z,58.46
2022-09-26T21:22:38.266Z,68.64
2022-09-26T21:27:40.398Z,66.07
2022-09-26T21:32:54.419Z,56.96
2022-09-26T21:38:00.057Z,54.84
2022-09-26T21:43:16.591Z,56.93
2022-09-26T21:48:18.563Z,59.05
2022-09-26T21:53:28.083Z,70.53
2022-09-26T21:58:37.190Z,66.90
2022-09-26T22:03:38.900Z,61.76
2022-09-26T22:08:42.025Z,54.38
2022-09-26T22:13:43.782Z,53.82
2022-09-26T22:18:46.066Z,56.10
2022-09-26T22:23:51.946Z,58.35
2022-09-26T22:28:53.715Z,69.28
2022-09-26T22:33:59.596Z,67.55
2022-09-26T22:39:01.571Z,63.02
2022-09-26T22:44:03.954Z,55.22
2022-09-26T22:49:06.035Z,54.27
2022-09-26T22:54:08.026Z,56.31
2022-09-26T22:59:10.691Z,58.91
2022-09-26T23:04:12.903Z,69.23
2022-09-26T23:09:14.799Z,67.12
2022-09-26T23:14:16.753Z,62.15
2022-09-26T23:19:18.531Z,54.99
2022-09-26T23:24:21.540Z,53.72
2022-09-26T23:29:23.310Z,55.89
2022-09-26T23:34:24.981Z,58.39
2022-09-26T23:39:26.662Z,69.35
2022-09-26T23:44:28.436Z,66.80
2022-09-26T23:49:30.617Z,61.60
2022-09-26T23:54:32.385Z,54.30
2022-09-26T23:59:34.265Z,54.05
